EWG59Y EDDK-LGKR
Flight info
| Callsign | EWG59Y |
|---|---|
| Flight time | N/A |
| Altitude | 37000 |
| Route | KUMIK1R KUMIK L603 TESGA DCT ESATI DCT DETEV DCT DINKU M867 XERUM DCT BAVAX DCT RADIZ DCT AIOSA DCT ENOXA L862 KAPPO L995 TIGRA T75 BEDEX |
| Aircraft | A320/M-SDE3FGHIJ1RWY/LB1 |
Departure
| Time | N/A |
|---|---|
| Airport | Cologne Bonn Airport (EDDK) |
Arrival
| Time | 2026-05-07 16:54 |
|---|---|
| Airport | Corfu Ioannis Kapodistrias International Airport (LGKR) |
| Time | Latitude | Longitude | Altitude | Speed | Heading |
|---|---|---|---|---|---|
| 2026-05-07 16:03 | 43.91576 | 15.72651 | 37035 ft | 455 kts | 156° |
| 2026-05-07 16:03 | 43.88831 | 15.74833 | 37008 ft | 455 kts | 157° |
| 2026-05-07 16:04 | 43.83338 | 15.79189 | 37016 ft | 455 kts | 157° |
| 2026-05-07 16:04 | 43.77829 | 15.83547 | 37026 ft | 456 kts | 157° |
| 2026-05-07 16:05 | 43.72321 | 15.87898 | 37033 ft | 456 kts | 157° |
| 2026-05-07 16:05 | 43.66806 | 15.92245 | 37039 ft | 456 kts | 157° |
| 2026-05-07 16:06 | 43.61286 | 15.96584 | 37043 ft | 456 kts | 157° |
| 2026-05-07 16:06 | 43.55765 | 16.00913 | 37036 ft | 456 kts | 157° |
| 2026-05-07 16:07 | 43.50249 | 16.05239 | 37050 ft | 456 kts | 156° |
| 2026-05-07 16:07 | 43.44728 | 16.09563 | 37042 ft | 456 kts | 157° |
| 2026-05-07 16:08 | 43.39205 | 16.13864 | 37048 ft | 456 kts | 157° |
| 2026-05-07 16:08 | 43.33715 | 16.18125 | 37049 ft | 456 kts | 157° |
| 2026-05-07 16:09 | 43.28190 | 16.22421 | 37051 ft | 456 kts | 157° |
| 2026-05-07 16:09 | 43.22665 | 16.26716 | 37031 ft | 456 kts | 158° |
| 2026-05-07 16:10 | 43.17131 | 16.30990 | 37035 ft | 457 kts | 158° |
| 2026-05-07 16:10 | 43.11598 | 16.35258 | 37027 ft | 457 kts | 158° |
| 2026-05-07 16:11 | 43.06056 | 16.39522 | 37033 ft | 457 kts | 158° |
| 2026-05-07 16:11 | 43.00516 | 16.43787 | 37012 ft | 457 kts | 158° |
| 2026-05-07 16:12 | 42.94960 | 16.48042 | 37014 ft | 458 kts | 158° |
| 2026-05-07 16:12 | 42.89392 | 16.52296 | 37022 ft | 459 kts | 158° |
| 2026-05-07 16:13 | 42.83820 | 16.56556 | 37028 ft | 460 kts | 158° |
| 2026-05-07 16:13 | 42.78238 | 16.60826 | 37015 ft | 460 kts | 158° |
| 2026-05-07 16:14 | 42.72647 | 16.65077 | 37025 ft | 461 kts | 158° |
| 2026-05-07 16:14 | 42.67043 | 16.69320 | 37032 ft | 461 kts | 158° |
| 2026-05-07 16:15 | 42.61432 | 16.73565 | 37004 ft | 462 kts | 158° |
| 2026-05-07 16:15 | 42.55807 | 16.77820 | 36997 ft | 463 kts | 159° |
| 2026-05-07 16:16 | 42.50172 | 16.82072 | 37010 ft | 464 kts | 159° |
| 2026-05-07 16:16 | 42.44525 | 16.86329 | 37014 ft | 465 kts | 159° |
| 2026-05-07 16:17 | 42.38872 | 16.90582 | 37018 ft | 465 kts | 159° |
| 2026-05-07 16:17 | 42.33210 | 16.94822 | 36999 ft | 466 kts | 160° |
| 2026-05-07 16:18 | 42.27569 | 16.99035 | 37006 ft | 467 kts | 160° |
| 2026-05-07 16:18 | 42.21875 | 17.03271 | 37011 ft | 468 kts | 160° |
| 2026-05-07 16:19 | 42.16170 | 17.07517 | 37011 ft | 468 kts | 160° |
| 2026-05-07 16:19 | 42.10462 | 17.11762 | 36985 ft | 470 kts | 160° |
| 2026-05-07 16:20 | 42.04727 | 17.16027 | 37009 ft | 471 kts | 160° |
| 2026-05-07 16:20 | 41.98974 | 17.20291 | 37020 ft | 472 kts | 160° |
| 2026-05-07 16:21 | 41.93216 | 17.24540 | 37022 ft | 471 kts | 162° |
| 2026-05-07 16:21 | 41.87292 | 17.28085 | 36997 ft | 466 kts | 166° |
| 2026-05-07 16:22 | 41.81332 | 17.31563 | 37002 ft | 468 kts | 166° |
| 2026-05-07 16:22 | 41.75349 | 17.35047 | 37012 ft | 469 kts | 166° |
| 2026-05-07 16:23 | 41.69361 | 17.38531 | 37021 ft | 470 kts | 166° |
| 2026-05-07 16:23 | 41.63361 | 17.42017 | 37005 ft | 471 kts | 167° |
| 2026-05-07 16:24 | 41.57338 | 17.45502 | 37018 ft | 472 kts | 167° |
| 2026-05-07 16:24 | 41.51307 | 17.48980 | 37030 ft | 472 kts | 167° |
| 2026-05-07 16:25 | 41.45268 | 17.52457 | 37036 ft | 473 kts | 167° |
| 2026-05-07 16:25 | 41.39271 | 17.55923 | 37037 ft | 473 kts | 167° |
| 2026-05-07 16:26 | 41.33232 | 17.59396 | 37038 ft | 473 kts | 167° |
| 2026-05-07 16:26 | 41.27188 | 17.62856 | 37043 ft | 473 kts | 167° |
| 2026-05-07 16:27 | 41.21100 | 17.66335 | 37007 ft | 474 kts | 168° |
| 2026-05-07 16:27 | 41.15072 | 17.69769 | 37010 ft | 475 kts | 168° |
| 2026-05-07 16:28 | 41.08986 | 17.73236 | 37016 ft | 477 kts | 168° |
| 2026-05-07 16:28 | 41.02884 | 17.76708 | 37012 ft | 478 kts | 168° |
| 2026-05-07 16:29 | 40.96763 | 17.80177 | 36999 ft | 480 kts | 168° |
| 2026-05-07 16:29 | 40.90615 | 17.83655 | 37009 ft | 482 kts | 168° |
| 2026-05-07 16:30 | 40.84441 | 17.87139 | 37015 ft | 483 kts | 168° |
| 2026-05-07 16:30 | 40.78260 | 17.90626 | 36988 ft | 484 kts | 169° |
| 2026-05-07 16:31 | 40.72052 | 17.94123 | 37019 ft | 486 kts | 169° |
| 2026-05-07 16:31 | 40.65829 | 17.97649 | 36994 ft | 491 kts | 165° |
| 2026-05-07 16:31 | 40.62899 | 18.00104 | 37082 ft | 511 kts | 150° |
| 2026-05-07 16:32 | 40.60295 | 18.03412 | 37015 ft | 524 kts | 142° |
| 2026-05-07 16:32 | 40.55322 | 18.10490 | 37035 ft | 528 kts | 140° |
| 2026-05-07 16:33 | 40.50411 | 18.17704 | 37038 ft | 530 kts | 140° |
| 2026-05-07 16:33 | 40.45512 | 18.24858 | 37035 ft | 530 kts | 141° |
| 2026-05-07 16:34 | 40.40542 | 18.31993 | 37038 ft | 529 kts | 141° |
| 2026-05-07 16:34 | 40.35561 | 18.39100 | 36579 ft | 530 kts | 141° |
| 2026-05-07 16:34 | 40.33038 | 18.42692 | 35395 ft | 540 kts | 141° |
| 2026-05-07 16:35 | 40.30479 | 18.46337 | 34359 ft | 545 kts | 141° |
| 2026-05-07 16:35 | 40.27917 | 18.49996 | 33378 ft | 545 kts | 140° |
| 2026-05-07 16:35 | 40.25362 | 18.53649 | 32396 ft | 542 kts | 139° |
| 2026-05-07 16:35 | 40.22830 | 18.57269 | 31469 ft | 538 kts | 138° |
| 2026-05-07 16:36 | 40.20313 | 18.60867 | 30532 ft | 534 kts | 137° |
| 2026-05-07 16:36 | 40.17817 | 18.64425 | 29657 ft | 526 kts | 137° |
| 2026-05-07 16:36 | 40.15362 | 18.67917 | 28596 ft | 518 kts | 137° |
| 2026-05-07 16:36 | 40.12937 | 18.71356 | 27544 ft | 510 kts | 137° |
| 2026-05-07 16:37 | 40.10555 | 18.74731 | 26607 ft | 500 kts | 137° |
| 2026-05-07 16:37 | 40.08217 | 18.78041 | 25716 ft | 491 kts | 136° |
| 2026-05-07 16:37 | 40.06692 | 18.80195 | 25141 ft | 485 kts | 136° |
| 2026-05-07 16:37 | 40.05137 | 18.82390 | 24578 ft | 479 kts | 136° |
| 2026-05-07 16:38 | 40.02893 | 18.85552 | 23780 ft | 471 kts | 136° |
| 2026-05-07 16:38 | 40.00684 | 18.88659 | 22885 ft | 463 kts | 136° |
| 2026-05-07 16:38 | 39.98516 | 18.91707 | 21981 ft | 456 kts | 137° |
| 2026-05-07 16:38 | 39.96369 | 18.94723 | 21133 ft | 450 kts | 137° |
| 2026-05-07 16:39 | 39.94271 | 18.97673 | 20599 ft | 437 kts | 137° |
| 2026-05-07 16:39 | 39.92233 | 19.00539 | 20084 ft | 426 kts | 137° |
| 2026-05-07 16:39 | 39.90243 | 19.03335 | 19559 ft | 416 kts | 137° |
| 2026-05-07 16:39 | 39.88297 | 19.06066 | 19052 ft | 407 kts | 137° |
| 2026-05-07 16:40 | 39.86390 | 19.08737 | 18547 ft | 399 kts | 137° |
| 2026-05-07 16:40 | 39.84520 | 19.11352 | 17995 ft | 391 kts | 137° |
| 2026-05-07 16:40 | 39.82690 | 19.13907 | 17483 ft | 381 kts | 137° |
| 2026-05-07 16:40 | 39.80901 | 19.16399 | 16983 ft | 373 kts | 137° |
| 2026-05-07 16:41 | 39.79147 | 19.18842 | 16493 ft | 367 kts | 137° |
| 2026-05-07 16:41 | 39.77395 | 19.21275 | 15825 ft | 371 kts | 137° |
| 2026-05-07 16:41 | 39.75640 | 19.23711 | 15379 ft | 367 kts | 137° |
| 2026-05-07 16:41 | 39.73922 | 19.26103 | 14974 ft | 364 kts | 137° |
| 2026-05-07 16:42 | 39.72208 | 19.28492 | 14561 ft | 360 kts | 137° |
| 2026-05-07 16:42 | 39.70509 | 19.30859 | 14137 ft | 356 kts | 137° |
| 2026-05-07 16:42 | 39.68824 | 19.33202 | 13640 ft | 355 kts | 137° |
| 2026-05-07 16:42 | 39.67138 | 19.35537 | 13115 ft | 353 kts | 137° |
| 2026-05-07 16:43 | 39.65467 | 19.37851 | 12609 ft | 350 kts | 137° |
| 2026-05-07 16:43 | 39.63808 | 19.40148 | 12108 ft | 347 kts | 137° |
| 2026-05-07 16:43 | 39.62165 | 19.42425 | 11611 ft | 344 kts | 137° |
| 2026-05-07 16:43 | 39.60531 | 19.44688 | 11100 ft | 342 kts | 137° |
| 2026-05-07 16:44 | 39.58910 | 19.46928 | 10617 ft | 339 kts | 137° |
| 2026-05-07 16:44 | 39.57349 | 19.49090 | 10477 ft | 316 kts | 137° |
| 2026-05-07 16:44 | 39.55890 | 19.51114 | 10360 ft | 298 kts | 137° |
| 2026-05-07 16:44 | 39.54502 | 19.53035 | 10163 ft | 288 kts | 137° |
| 2026-05-07 16:45 | 39.53144 | 19.54906 | 9901 ft | 283 kts | 137° |
| 2026-05-07 16:45 | 39.51799 | 19.56757 | 9505 ft | 281 kts | 137° |
| 2026-05-07 16:45 | 39.50461 | 19.58599 | 9123 ft | 280 kts | 137° |
| 2026-05-07 16:45 | 39.49132 | 19.60424 | 8735 ft | 278 kts | 136° |
| 2026-05-07 16:46 | 39.47814 | 19.62232 | 8360 ft | 275 kts | 136° |
| 2026-05-07 16:46 | 39.46507 | 19.64027 | 7992 ft | 273 kts | 136° |
| 2026-05-07 16:46 | 39.45215 | 19.65799 | 7663 ft | 269 kts | 136° |
| 2026-05-07 16:46 | 39.43942 | 19.67544 | 7343 ft | 264 kts | 136° |
| 2026-05-07 16:47 | 39.42692 | 19.69260 | 7040 ft | 260 kts | 136° |
| 2026-05-07 16:47 | 39.41461 | 19.70952 | 6697 ft | 257 kts | 134° |
| 2026-05-07 16:47 | 39.40448 | 19.72846 | 6373 ft | 257 kts | 119° |
| 2026-05-07 16:47 | 39.39882 | 19.75006 | 6021 ft | 259 kts | 104° |
| 2026-05-07 16:48 | 39.39778 | 19.77359 | 5664 ft | 259 kts | 92° |
| 2026-05-07 16:48 | 39.39816 | 19.79638 | 5325 ft | 256 kts | 93° |
| 2026-05-07 16:48 | 39.39849 | 19.81926 | 5005 ft | 252 kts | 92° |
| 2026-05-07 16:48 | 39.39882 | 19.84150 | 4761 ft | 244 kts | 93° |
| 2026-05-07 16:49 | 39.39912 | 19.86321 | 4508 ft | 238 kts | 93° |
| 2026-05-07 16:49 | 39.40128 | 19.88422 | 4248 ft | 236 kts | 78° |
| 2026-05-07 16:49 | 39.40588 | 19.90436 | 4006 ft | 231 kts | 78° |
| 2026-05-07 16:49 | 39.41038 | 19.92405 | 3764 ft | 226 kts | 78° |
| 2026-05-07 16:50 | 39.41476 | 19.94327 | 3511 ft | 219 kts | 78° |
| 2026-05-07 16:50 | 39.41988 | 19.96139 | 3237 ft | 213 kts | 59° |
| 2026-05-07 16:50 | 39.43165 | 19.97217 | 3005 ft | 211 kts | 14° |
| 2026-05-07 16:50 | 39.44598 | 19.97077 | 2737 ft | 207 kts | 347° |
| 2026-05-07 16:51 | 39.45973 | 19.96588 | 2473 ft | 203 kts | 342° |
| 2026-05-07 16:51 | 39.47312 | 19.96059 | 2204 ft | 200 kts | 342° |
| 2026-05-07 16:51 | 39.48637 | 19.95530 | 1931 ft | 198 kts | 342° |
| 2026-05-07 16:51 | 39.49943 | 19.95015 | 1730 ft | 191 kts | 343° |
| 2026-05-07 16:52 | 39.51167 | 19.94539 | 1696 ft | 176 kts | 343° |
| 2026-05-07 16:52 | 39.52335 | 19.94090 | 1452 ft | 175 kts | 344° |
| 2026-05-07 16:52 | 39.53481 | 19.93651 | 1195 ft | 168 kts | 343° |
| 2026-05-07 16:52 | 39.54549 | 19.93217 | 1032 ft | 159 kts | 339° |
| 2026-05-07 16:53 | 39.55533 | 19.92620 | 852 ft | 154 kts | 333° |
| 2026-05-07 16:53 | 39.56511 | 19.92109 | 598 ft | 149 kts | 349° |
| 2026-05-07 16:53 | 39.57520 | 19.91880 | 388 ft | 146 kts | 353° |
| 2026-05-07 16:53 | 39.58510 | 19.91640 | 210 ft | 143 kts | 351° |
| 2026-05-07 16:54 | 39.59487 | 19.91392 | 26 ft | 141 kts | 348° |
| 2026-05-07 16:54 | 39.60264 | 19.91197 | 21 ft | 74 kts | 348° |
| 2026-05-07 16:54 | 39.60642 | 19.91101 | 18 ft | 50 kts | 350° |
| 2026-05-07 16:54 | 39.60932 | 19.91021 | 19 ft | 21 kts | 349° |
| 2026-05-07 16:55 | 39.61032 | 19.91039 | 21 ft | 12 kts | 51° |
| 2026-05-07 16:55 | 39.61055 | 19.91105 | 19 ft | 6 kts | 101° |
| 2026-05-07 16:55 | 39.61016 | 19.91134 | 19 ft | 8 kts | 168° |
| 2026-05-07 16:55 | 39.60956 | 19.91149 | 19 ft | 9 kts | 167° |
| 2026-05-07 16:56 | 39.60888 | 19.91168 | 120 ft | 0 kts | 167° |